• location
  • image
mod_vvisit_countermod_vvisit_countermod_vvisit_countermod_vvisit_countermod_vvisit_countermod_vvisit_counter
mod_vvisit_counterToday220
mod_vvisit_counterYesterday694
mod_vvisit_counterThis week914
mod_vvisit_counterLast week4360
mod_vvisit_counterThis month3145
mod_vvisit_counterLast month17439
mod_vvisit_counterAll days501931

We have: 7 guests, 1 bots online
Your IP: 54.197.66.254
 , 
Today: Dec 06, 2016
Airport

AP V2 EN

 

 

You can watch a film about services of Siauliai International Airport

Today

Tuesday, 06 December 2016

Weather Forecast

Siauliai °C
   

Aviation Weather Forecast

[source: ADDS]
METAR
EYSA 060950Z 36008KT 9999 -SHSN BKN015CB BKN029 M01/M02 Q1020 R32R/29//95 R32L/29//95 WHT NOSIG =
TAF
TAF EYSA 060800Z 0609/0618 34016KT 9000 BKN025 TEMPO 0609/0611 4000 SHSN SCT005 BKN015CB BECMG 0616/0618 VRB04KT =
SR / SS: 06:37 / 14:01 UTC (EYSA 2016-12-06)

Search

Who's Online

We have 8 guests online

tic logo en